Key West, FL

5:14 PM EDT on September 02, 2014 (GMT -0400)
Big Coppitt Key Gulfside | Change Station
CLOSE
Current Station
Personal Weather Station
Location: Key West, FL
Elevation: 31 ft
Nearby Weather Stations

Elev 31 ft 24.60 °N, 81.67 °W | Updated 5 minutes ago

Mostly Cloudy
Mostly Cloudy
82.4 °F
Feels Like 90 °F
N
2.2
Wind Variable Wind from West

Today
High -- | Low -- °F
--% Chance of Precip.
Yesterday
High -- | Low -- °F
Precip. -- in
7:08 AM 7:43 PM
First Quarter, 55% visible
Pressure 29.98 in
Visibility 10.0 miles
Clouds Few 4000 ft
Scattered Clouds 7000 ft
Mostly Cloudy 20000 ft
Heat Index 90 °F
Dew Point 75 °F
Humidity 79%
Rainfall 0.05 in
Snow Depth Not available.
UV 3 out of 12
Pollen 4.70 out of 12
Air Quality Not available.
Flu Activity Not available.
METAR KNQX 022053Z 28003KT 10SM FEW040 SCT070 BKN200 27/23 A2998 RMK AO2 TSE19 SLP150 T2 SET 60005 T02720233 58019 $

More Conditions Fewer Conditions

Pressure 29.98 in
Visibility 10.0 miles
Clouds Few 4000 ft
Scattered Clouds 7000 ft
Mostly Cloudy 20000 ft
Heat Index 90 °F
Dew Point 75 °F
Humidity 79%
Rainfall 0.05 in
Snow Depth Not available.
UV 3 out of 12
Pollen 4.70 out of 12
Air Quality Not available.
Flu Activity Not available.
METAR KNQX 022053Z 28003KT 10SM FEW040 SCT070 BKN200 27/23 A2998 RMK AO2 TSE19 SLP150 T2 SET 60005 T02720233 58019 $

More Conditions Fewer Conditions

Nowcast | as of 4:54 PM EDT on September 2, 2014

Through 600 PM...scattered showers and isolated thunderstorms will impact the outer Gulf waters west of Mainland Monroe...as well as on the outer Florida Straits off of the Upper Keys. This activity will produce wind gusts near 30 knots...occasional lightning strike...and heavy rain reducing the visibility to near two miles. This activity will move to the west at 10 to 15 knots.

×

10-Day Weather Forecast

Almanac

Astronomy

Sep. 02, 2014 Rise Set
Actual Time 7:08 AM EDT 7:43 PM EDT
Civil Twilight 6:44 AM EDT 8:06 PM EDT
Nautical Twilight 6:17 AM EDT 8:33 PM EDT
Astronomical Twilight 5:50 AM EDT 9:01 PM EDT
Moon 2:07 PM EDT 12:27 AM EDT
Length of Visible Light 13h 22m
Length of Day
12h 35m
Tomorrow will be 1m 23s shorter.
First Quarter, 55% of the Moon is Illuminated
Today
First Quarter
Sep 8
Full
Sep 15
Last Quarter
Sep 24
New
Oct 1
First Quarter

Today's Extremes

State Highs State Lows

Community

WunderPhotos

Upload Photos

1,749,769 photos uploaded!

Nearby

Snow Depth

Station Depth Elevation
No new snow has been reported.

Earthquake Activity

City Distance Mag. Time & Date
No recent earthquake activity has been reported nearby.
Minimum magnitude displayed is 2.5.

Coastal Water Temperatures

Place Temperature
Key West, FL 87.1 °F
Vaca Key, FL 89.1 °F

Nearby Weather Stations